createdAt,value
2022-11-08T00:00:07.029Z,0
2022-11-08T00:01:10.752Z,0
2022-11-08T00:02:14.144Z,0
2022-11-08T00:03:17.685Z,0
2022-11-08T00:04:21.396Z,0
2022-11-08T00:05:25.195Z,0
2022-11-08T00:06:28.082Z,0
2022-11-08T00:07:30.347Z,0
2022-11-08T00:08:33.465Z,0
2022-11-08T00:09:36.616Z,0
2022-11-08T00:10:39.331Z,0
2022-11-08T00:11:42.967Z,0
2022-11-08T00:12:46.801Z,0
2022-11-08T00:13:49.236Z,0
2022-11-08T00:14:52.228Z,0
2022-11-08T00:15:55.183Z,0
2022-11-08T00:16:58.889Z,0
2022-11-08T00:18:01.052Z,0
2022-11-08T00:19:04.448Z,0
2022-11-08T00:20:07.175Z,0
2022-11-08T00:21:10.260Z,0
2022-11-08T00:22:12.920Z,0
2022-11-08T00:23:15.670Z,0
2022-11-08T00:24:18.749Z,0
2022-11-08T00:25:21.545Z,0
2022-11-08T00:26:24.088Z,0
2022-11-08T00:27:26.607Z,0
2022-11-08T00:28:29.835Z,0
2022-11-08T00:29:32.701Z,0
2022-11-08T00:30:35.295Z,0
2022-11-08T00:31:39.315Z,0
2022-11-08T00:32:42.188Z,0
2022-11-08T00:33:45.810Z,0
2022-11-08T00:34:48.820Z,0
2022-11-08T00:35:51.918Z,0
2022-11-08T00:36:55.196Z,0
2022-11-08T00:37:58.278Z,0
2022-11-08T00:39:00.831Z,0
2022-11-08T00:40:03.921Z,0
2022-11-08T00:41:07.300Z,0
2022-11-08T00:42:10.465Z,0
2022-11-08T00:43:13.743Z,0
2022-11-08T00:44:17.503Z,0
2022-11-08T00:45:20.329Z,0
2022-11-08T00:46:23.220Z,0
2022-11-08T00:47:26.644Z,0
2022-11-08T00:48:29.726Z,0
2022-11-08T00:49:32.672Z,0
2022-11-08T00:50:36.311Z,0
2022-11-08T00:51:38.583Z,0
2022-11-08T00:52:40.551Z,0
2022-11-08T00:53:43.264Z,0
2022-11-08T00:54:46.715Z,0
2022-11-08T00:55:50.167Z,0
2022-11-08T00:56:52.684Z,0
2022-11-08T00:57:59.894Z,0
2022-11-08T00:59:04.218Z,0
2022-11-08T01:00:07.897Z,0
2022-11-08T01:01:10.833Z,0
2022-11-08T01:02:14.390Z,0
2022-11-08T01:03:18.236Z,0
2022-11-08T01:04:21.127Z,0
2022-11-08T01:05:24.272Z,0
2022-11-08T01:06:26.823Z,0
2022-11-08T01:07:29.633Z,0
2022-11-08T01:08:32.076Z,0
2022-11-08T01:09:34.319Z,0
2022-11-08T01:10:36.940Z,0
2022-11-08T01:11:39.777Z,0
2022-11-08T01:12:42.303Z,0
2022-11-08T01:13:45.100Z,0
2022-11-08T01:14:47.973Z,0
2022-11-08T01:15:51.251Z,0
2022-11-08T01:16:54.498Z,0
2022-11-08T01:17:57.037Z,0
2022-11-08T01:19:00.353Z,0
2022-11-08T01:20:03.872Z,0
2022-11-08T01:21:07.336Z,0
2022-11-08T01:22:10.861Z,0
2022-11-08T01:23:13.891Z,0
2022-11-08T01:24:17.307Z,0
2022-11-08T01:25:20.577Z,0
2022-11-08T01:26:23.397Z,0
2022-11-08T01:27:26.487Z,0
2022-11-08T01:28:29.006Z,0
2022-11-08T01:29:32.179Z,0
2022-11-08T01:30:35.168Z,0
2022-11-08T01:31:38.396Z,0
2022-11-08T01:32:41.734Z,0
2022-11-08T01:33:50.003Z,0
2022-11-08T01:34:54.671Z,0
2022-11-08T01:35:58.011Z,0
2022-11-08T01:37:00.460Z,0
2022-11-08T01:38:03.025Z,0
2022-11-08T01:39:05.562Z,0
2022-11-08T01:40:07.997Z,0
2022-11-08T01:41:10.796Z,0
2022-11-08T01:42:13.331Z,0
2022-11-08T01:43:16.218Z,0
2022-11-08T01:44:19.090Z,0
2022-11-08T01:45:21.830Z,0
2022-11-08T01:46:24.357Z,0
2022-11-08T01:47:27.767Z,0
2022-11-08T01:48:30.487Z,0
2022-11-08T01:49:33.916Z,0
2022-11-08T01:50:37.110Z,0
2022-11-08T01:51:40.265Z,0
2022-11-08T01:52:43.140Z,0
2022-11-08T01:53:46.316Z,0
2022-11-08T01:54:48.935Z,0
2022-11-08T01:55:52.085Z,0
2022-11-08T01:56:54.798Z,0
2022-11-08T01:57:57.349Z,0
2022-11-08T01:59:00.216Z,0
2022-11-08T02:00:02.818Z,0
2022-11-08T02:01:05.950Z,0
2022-11-08T02:02:09.345Z,0
2022-11-08T02:03:14.262Z,0
2022-11-08T02:04:17.252Z,0
2022-11-08T02:05:20.140Z,0
2022-11-08T02:06:23.241Z,0
2022-11-08T02:07:25.909Z,0
2022-11-08T02:08:28.707Z,0
2022-11-08T02:09:31.802Z,0
2022-11-08T02:10:35.273Z,0
2022-11-08T02:11:38.720Z,0
2022-11-08T02:12:41.434Z,0
2022-11-08T02:13:44.795Z,0
2022-11-08T02:14:48.306Z,0
2022-11-08T02:15:51.992Z,0
2022-11-08T02:16:55.714Z,0
2022-11-08T02:17:58.796Z,0
2022-11-08T02:19:01.655Z,0
2022-11-08T02:20:05.385Z,0
2022-11-08T02:21:08.178Z,0
2022-11-08T02:22:11.835Z,0
2022-11-08T02:23:15.480Z,0
2022-11-08T02:24:18.646Z,0
2022-11-08T02:25:21.172Z,0
2022-11-08T02:26:24.254Z,0
2022-11-08T02:27:27.315Z,0
2022-11-08T02:28:30.272Z,0
2022-11-08T02:29:33.301Z,0
2022-11-08T02:30:37.090Z,0
2022-11-08T02:31:39.582Z,0
2022-11-08T02:32:42.462Z,0
2022-11-08T02:33:45.204Z,0
2022-11-08T02:34:48.605Z,0
2022-11-08T02:35:51.126Z,0
2022-11-08T02:36:54.470Z,0
2022-11-08T02:37:57.487Z,0
2022-11-08T02:39:00.952Z,0
2022-11-08T02:40:04.304Z,0
2022-11-08T02:41:07.474Z,0
2022-11-08T02:42:10.640Z,0
2022-11-08T02:43:13.580Z,0
2022-11-08T02:44:16.292Z,0
2022-11-08T02:45:19.173Z,0
2022-11-08T02:46:22.040Z,0
2022-11-08T02:47:25.197Z,0
2022-11-08T02:48:28.626Z,0
2022-11-08T02:49:31.419Z,0
2022-11-08T02:50:34.864Z,0
2022-11-08T02:51:38.307Z,0
2022-11-08T02:52:41.778Z,0
2022-11-08T02:53:45.137Z,0
2022-11-08T02:54:48.217Z,0
2022-11-08T02:55:51.319Z,0
2022-11-08T02:56:54.497Z,0
2022-11-08T02:57:57.613Z,0
2022-11-08T02:58:59.857Z,0
2022-11-08T03:00:02.389Z,0
2022-11-08T03:01:05.233Z,0
2022-11-08T03:02:09.119Z,0
2022-11-08T03:03:13.164Z,0
2022-11-08T03:04:15.695Z,0
2022-11-08T03:05:18.493Z,0
2022-11-08T03:06:22.088Z,0
2022-11-08T03:07:25.052Z,0
2022-11-08T03:08:28.484Z,0
2022-11-08T03:09:31.588Z,0
2022-11-08T03:10:34.747Z,0
2022-11-08T03:11:38.476Z,0
2022-11-08T03:12:41.048Z,0
2022-11-08T03:13:44.527Z,0
2022-11-08T03:14:46.968Z,0
2022-11-08T03:15:49.121Z,0
2022-11-08T03:16:52.050Z,0
2022-11-08T03:17:55.167Z,0
2022-11-08T03:18:58.423Z,0
2022-11-08T03:20:01.706Z,0
2022-11-08T03:21:04.147Z,0
2022-11-08T03:22:07.975Z,0
2022-11-08T03:23:11.702Z,0
2022-11-08T03:24:15.045Z,0
2022-11-08T03:25:18.158Z,0
2022-11-08T03:26:21.920Z,0
2022-11-08T03:27:24.910Z,0
2022-11-08T03:28:28.658Z,0
2022-11-08T03:29:31.674Z,0
2022-11-08T03:30:34.949Z,0
2022-11-08T03:31:38.023Z,0
2022-11-08T03:32:41.045Z,0
2022-11-08T03:33:44.135Z,0
2022-11-08T03:34:47.382Z,0
2022-11-08T03:35:50.473Z,0
2022-11-08T03:36:53.586Z,0
2022-11-08T03:37:57.252Z,0
2022-11-08T03:39:00.322Z,0
2022-11-08T03:40:03.845Z,0
2022-11-08T03:41:07.596Z,0
2022-11-08T03:42:10.843Z,0
2022-11-08T03:43:13.919Z,0
2022-11-08T03:44:16.739Z,0
2022-11-08T03:45:19.561Z,0
2022-11-08T03:46:22.672Z,0
2022-11-08T03:47:26.224Z,0
2022-11-08T03:48:29.322Z,0
2022-11-08T03:49:32.123Z,0
2022-11-08T03:50:35.258Z,0
2022-11-08T03:51:38.695Z,0
2022-11-08T03:52:41.500Z,0
2022-11-08T03:53:44.996Z,0
2022-11-08T03:54:47.522Z,0
2022-11-08T03:55:50.604Z,0
2022-11-08T03:56:53.774Z,0
2022-11-08T03:57:57.133Z,0
2022-11-08T03:58:59.984Z,0
2022-11-08T04:00:02.998Z,0
2022-11-08T04:01:06.201Z,0
2022-11-08T04:02:09.967Z,0
2022-11-08T04:03:14.262Z,0
2022-11-08T04:04:16.748Z,0
2022-11-08T04:05:19.567Z,0
2022-11-08T04:06:22.126Z,0
2022-11-08T04:07:24.988Z,0
2022-11-08T04:08:27.980Z,0
2022-11-08T04:09:30.899Z,0
2022-11-08T04:10:34.276Z,0
2022-11-08T04:11:37.001Z,0
2022-11-08T04:12:39.815Z,0
2022-11-08T04:13:43.259Z,0
2022-11-08T04:14:46.255Z,0
2022-11-08T04:15:49.111Z,0
2022-11-08T04:16:52.203Z,0
2022-11-08T04:17:55.209Z,0
2022-11-08T04:18:57.727Z,0
2022-11-08T04:20:00.265Z,0
2022-11-08T04:21:04.289Z,0
2022-11-08T04:22:07.406Z,0
2022-11-08T04:23:09.929Z,0
2022-11-08T04:24:13.440Z,0
2022-11-08T04:25:16.894Z,0
2022-11-08T04:26:20.115Z,0
2022-11-08T04:27:23.032Z,0
2022-11-08T04:28:26.431Z,0
2022-11-08T04:29:29.595Z,0
2022-11-08T04:30:32.112Z,0
2022-11-08T04:31:34.918Z,0
2022-11-08T04:32:38.112Z,0
2022-11-08T04:33:40.915Z,0
2022-11-08T04:34:43.649Z,0
2022-11-08T04:35:46.672Z,0
2022-11-08T04:36:49.291Z,0
2022-11-08T04:37:52.736Z,0
2022-11-08T04:38:55.485Z,0
2022-11-08T04:39:58.905Z,0
2022-11-08T04:41:02.405Z,0
2022-11-08T04:42:05.565Z,0
2022-11-08T04:43:08.915Z,0
2022-11-08T04:44:11.713Z,0
2022-11-08T04:45:14.794Z,0
2022-11-08T04:46:17.472Z,0
2022-11-08T04:47:20.589Z,0
2022-11-08T04:48:23.134Z,0
2022-11-08T04:49:26.014Z,0
2022-11-08T04:50:28.744Z,0
2022-11-08T04:51:32.168Z,0
2022-11-08T04:52:35.281Z,0
2022-11-08T04:53:38.069Z,0
2022-11-08T04:54:41.699Z,0
2022-11-08T04:55:44.501Z,0
2022-11-08T04:56:47.911Z,0
2022-11-08T04:57:50.447Z,0
2022-11-08T04:58:53.350Z,0
2022-11-08T04:59:56.731Z,0
2022-11-08T05:00:59.220Z,0
2022-11-08T05:02:02.503Z,0
2022-11-08T05:03:06.184Z,0
2022-11-08T05:04:09.913Z,0
2022-11-08T05:05:13.084Z,0
2022-11-08T05:06:15.383Z,0
2022-11-08T05:07:18.319Z,0
2022-11-08T05:08:21.370Z,0
2022-11-08T05:09:23.910Z,0
2022-11-08T05:10:26.630Z,0
2022-11-08T05:11:29.931Z,0
2022-11-08T05:12:33.113Z,0
2022-11-08T05:13:35.974Z,0
2022-11-08T05:14:39.965Z,0
2022-11-08T05:15:43.406Z,0
2022-11-08T05:16:47.126Z,0
2022-11-08T05:17:49.926Z,0
2022-11-08T05:18:53.026Z,0
2022-11-08T05:19:56.525Z,0
2022-11-08T05:20:59.664Z,0
2022-11-08T05:22:02.560Z,0
2022-11-08T05:23:05.168Z,0
2022-11-08T05:24:08.270Z,0
2022-11-08T05:25:11.342Z,0
2022-11-08T05:26:15.056Z,0
2022-11-08T05:27:17.765Z,0
2022-11-08T05:28:21.328Z,0
2022-11-08T05:29:25.080Z,0
2022-11-08T05:30:28.176Z,0
2022-11-08T05:31:30.994Z,0
2022-11-08T05:32:34.551Z,0
2022-11-08T05:33:37.072Z,0
2022-11-08T05:34:40.389Z,0
2022-11-08T05:35:42.923Z,0
2022-11-08T05:36:46.344Z,0
2022-11-08T05:37:48.781Z,0
2022-11-08T05:38:51.597Z,0
2022-11-08T05:39:54.070Z,0
2022-11-08T05:40:57.138Z,0
2022-11-08T05:42:00.575Z,0
2022-11-08T05:43:04.480Z,0
2022-11-08T05:44:07.602Z,0
2022-11-08T05:45:10.678Z,0
2022-11-08T05:46:13.477Z,4
2022-11-08T05:47:16.601Z,0
2022-11-08T05:48:20.244Z,0
2022-11-08T05:49:23.709Z,4
2022-11-08T05:50:26.520Z,0
2022-11-08T05:51:29.752Z,4
2022-11-08T05:52:32.477Z,4
2022-11-08T05:53:35.501Z,4
2022-11-08T05:54:38.798Z,8
2022-11-08T05:55:41.527Z,8
2022-11-08T05:56:44.521Z,12
2022-11-08T05:57:47.515Z,12
2022-11-08T05:58:50.886Z,12
2022-11-08T05:59:54.019Z,16
2022-11-08T06:00:57.472Z,20
2022-11-08T06:01:59.789Z,24
2022-11-08T06:03:03.461Z,28
2022-11-08T06:04:07.357Z,32
2022-11-08T06:05:10.144Z,40
2022-11-08T06:06:13.329Z,44
2022-11-08T06:07:16.709Z,52
2022-11-08T06:08:19.194Z,64
2022-11-08T06:09:23.008Z,72
2022-11-08T06:10:25.638Z,88
2022-11-08T06:11:29.549Z,100
2022-11-08T06:12:31.969Z,116
2022-11-08T06:13:35.320Z,124
2022-11-08T06:14:38.121Z,140
2022-11-08T06:15:41.334Z,156
2022-11-08T06:16:44.401Z,172
2022-11-08T06:17:47.080Z,192
2022-11-08T06:18:50.254Z,212
2022-11-08T06:19:53.955Z,240
2022-11-08T06:20:57.141Z,268
2022-11-08T06:22:00.444Z,300
2022-11-08T06:23:03.621Z,336
2022-11-08T06:24:06.143Z,364
2022-11-08T06:25:09.591Z,388
2022-11-08T06:26:12.691Z,412
2022-11-08T06:27:15.324Z,432
2022-11-08T06:28:18.318Z,464
2022-11-08T06:29:21.763Z,496
2022-11-08T06:30:24.909Z,532
2022-11-08T06:31:28.416Z,580
2022-11-08T06:32:31.243Z,628
2022-11-08T06:33:34.286Z,688
2022-11-08T06:34:37.462Z,740
2022-11-08T06:35:41.614Z,796
2022-11-08T06:36:44.225Z,856
2022-11-08T06:37:47.049Z,924
2022-11-08T06:38:50.603Z,996
2022-11-08T06:39:53.370Z,1064
2022-11-08T06:40:56.715Z,1120
2022-11-08T06:41:59.997Z,1176
2022-11-08T06:43:03.384Z,1248
2022-11-08T06:44:06.465Z,1332
2022-11-08T06:45:09.220Z,1440
2022-11-08T06:46:12.192Z,1532
2022-11-08T06:47:15.574Z,1620
2022-11-08T06:48:18.676Z,1676
2022-11-08T06:49:22.407Z,1752
2022-11-08T06:50:25.565Z,1924
2022-11-08T06:51:30.469Z,2388
2022-11-08T06:52:33.915Z,2276
2022-11-08T06:53:37.404Z,2400
2022-11-08T06:54:39.953Z,2360
2022-11-08T06:55:42.676Z,2408
2022-11-08T06:56:46.123Z,2548
2022-11-08T06:57:48.779Z,2668
2022-11-08T06:58:51.966Z,2808
2022-11-08T06:59:55.384Z,2924
2022-11-08T07:00:58.267Z,3112
2022-11-08T07:02:01.046Z,3248
2022-11-08T07:03:05.376Z,3520
2022-11-08T07:04:09.196Z,3536
2022-11-08T07:05:11.911Z,3684
2022-11-08T07:06:14.948Z,3980
2022-11-08T07:07:18.247Z,5044
2022-11-08T07:08:23.843Z,7172
2022-11-08T07:09:27.356Z,7720
2022-11-08T07:10:30.757Z,10820
2022-11-08T07:11:33.330Z,10264
2022-11-08T07:12:36.496Z,9336
2022-11-08T07:13:39.916Z,10676
2022-11-08T07:14:43.318Z,12780
2022-11-08T07:15:46.406Z,14784
2022-11-08T07:16:49.852Z,13172
2022-11-08T07:17:53.315Z,14176
2022-11-08T07:18:57.387Z,16992
2022-11-08T07:20:00.503Z,18656
2022-11-08T07:21:03.224Z,20384
2022-11-08T07:22:06.409Z,20416
2022-11-08T07:23:10.065Z,20352
2022-11-08T07:24:12.751Z,22304
2022-11-08T07:25:16.217Z,24448
2022-11-08T07:26:19.317Z,25728
2022-11-08T07:27:21.772Z,26016
2022-11-08T07:28:24.558Z,26400
2022-11-08T07:29:27.779Z,27296
2022-11-08T07:30:31.179Z,28832
2022-11-08T07:31:34.506Z,29984
2022-11-08T07:32:37.329Z,29760
2022-11-08T07:33:40.325Z,26720
2022-11-08T07:34:43.908Z,24384
2022-11-08T07:35:46.707Z,25888
2022-11-08T07:36:50.129Z,29312
2022-11-08T07:37:52.958Z,31104
2022-11-08T07:38:55.862Z,30848
2022-11-08T07:40:08.192Z,23488
2022-11-08T07:41:11.837Z,21184
2022-11-08T07:42:14.471Z,23296
2022-11-08T07:43:17.482Z,24000
2022-11-08T07:44:20.650Z,29376
2022-11-08T07:45:24.739Z,29760
2022-11-08T07:46:28.105Z,32128
2022-11-08T07:47:30.913Z,34528
2022-11-08T07:48:33.992Z,33696
2022-11-08T07:49:36.588Z,30784
2022-11-08T07:50:40.652Z,18592
2022-11-08T07:51:45.027Z,15932
2022-11-08T07:52:48.410Z,18912
2022-11-08T07:53:51.873Z,15424
2022-11-08T07:54:54.970Z,12532
2022-11-08T07:55:58.501Z,13592
2022-11-08T07:57:01.799Z,15856
2022-11-08T07:58:04.812Z,20672
2022-11-08T07:59:07.438Z,24160
2022-11-08T08:00:11.049Z,24320
2022-11-08T08:01:14.170Z,23648
2022-11-08T08:02:17.770Z,23648
2022-11-08T08:03:22.256Z,32800
2022-11-08T08:04:27.052Z,35744
2022-11-08T08:05:29.773Z,35360
2022-11-08T08:06:32.717Z,36704
2022-11-08T08:07:36.097Z,43328
2022-11-08T08:08:39.206Z,45632
2022-11-08T08:09:42.957Z,47008
2022-11-08T08:10:46.412Z,43360
2022-11-08T08:11:50.221Z,41568
2022-11-08T08:12:53.660Z,41376
2022-11-08T08:13:56.735Z,37920
2022-11-08T08:14:59.322Z,39232
2022-11-08T08:16:02.429Z,40896
2022-11-08T08:17:06.167Z,40352
2022-11-08T08:18:09.546Z,46016
2022-11-08T08:19:12.913Z,49728
2022-11-08T08:20:16.533Z,52576
2022-11-08T08:21:19.526Z,53280
2022-11-08T08:22:22.739Z,50848
2022-11-08T08:23:26.204Z,43488
2022-11-08T08:24:29.291Z,45696
2022-11-08T08:25:32.420Z,44096
2022-11-08T08:26:36.150Z,49184
2022-11-08T08:27:39.915Z,51328
2022-11-08T08:28:42.174Z,45280
2022-11-08T08:29:45.457Z,46656
2022-11-08T08:30:48.831Z,55488
2022-11-08T08:31:52.913Z,54944
2022-11-08T08:33:14.922Z,57952
2022-11-08T08:34:32.740Z,49792
2022-11-08T08:35:35.897Z,53984
2022-11-08T08:36:39.245Z,54368
2022-11-08T08:37:42.823Z,55680
2022-11-08T08:38:46.003Z,57632
2022-11-08T08:39:48.712Z,56896
2022-11-08T08:40:52.135Z,59648
2022-11-08T08:41:55.320Z,63520
2022-11-08T08:42:58.119Z,68000
2022-11-08T08:44:01.293Z,58720
2022-11-08T08:45:04.441Z,60448
2022-11-08T08:46:16.622Z,63168
2022-11-08T08:47:19.799Z,70816
2022-11-08T08:48:23.039Z,69184
2022-11-08T08:49:26.246Z,67072
2022-11-08T08:50:29.262Z,64096
2022-11-08T08:51:32.666Z,63808
2022-11-08T08:52:35.260Z,64288
2022-11-08T08:53:38.402Z,62912
2022-11-08T08:54:41.915Z,56448
2022-11-08T08:55:45.261Z,63840
2022-11-08T08:56:48.719Z,76064
2022-11-08T08:57:52.082Z,78080
2022-11-08T09:02:38.443Z,76960
2022-11-08T09:03:45.705Z,76384
2022-11-08T09:04:49.407Z,78880
2022-11-08T09:05:52.336Z,80736
2022-11-08T09:06:55.284Z,83776
2022-11-08T09:07:58.712Z,85696
2022-11-08T09:09:02.193Z,85504
2022-11-08T09:10:05.655Z,85728
2022-11-08T09:11:09.076Z,87264
2022-11-08T09:12:14.550Z,89248
2022-11-08T09:13:18.611Z,91168
2022-11-08T09:14:23.093Z,93216
2022-11-08T09:15:26.488Z,93632
2022-11-08T09:16:30.251Z,94144
2022-11-08T09:17:33.492Z,95584
2022-11-08T09:18:37.047Z,95392
2022-11-08T09:19:40.109Z,95680
2022-11-08T09:20:44.114Z,95616
2022-11-08T09:21:46.712Z,92544
2022-11-08T09:22:50.290Z,93952
2022-11-08T09:23:53.634Z,89632
2022-11-08T09:24:56.975Z,90400
2022-11-08T09:25:59.782Z,88864
2022-11-08T09:27:03.518Z,85920
2022-11-08T09:28:06.969Z,94400
2022-11-08T09:29:10.119Z,95456
2022-11-08T09:30:13.276Z,98752
2022-11-08T09:31:16.092Z,87328
2022-11-08T09:32:24.738Z,89088
2022-11-08T09:34:05.646Z,75104
2022-11-08T09:35:09.298Z,94272
2022-11-08T09:36:12.375Z,94208
2022-11-08T09:37:15.838Z,94464
2022-11-08T09:38:19.318Z,93952
2022-11-08T09:39:23.816Z,93088
2022-11-08T09:40:27.357Z,87296
2022-11-08T09:41:30.739Z,80064
2022-11-08T09:42:33.909Z,78624
2022-11-08T09:43:36.716Z,54560
2022-11-08T09:44:40.098Z,57920
2022-11-08T09:45:43.559Z,58976
2022-11-08T09:46:46.710Z,66336
2022-11-08T09:47:52.044Z,57248
2022-11-08T09:48:56.389Z,56128
2022-11-08T09:50:00.157Z,54304
2022-11-08T09:51:03.942Z,55456
2022-11-08T09:52:06.375Z,57952
2022-11-08T09:53:09.386Z,61440
2022-11-08T09:54:15.770Z,74528
2022-11-08T09:55:23.053Z,58080
2022-11-08T09:56:26.266Z,56480
2022-11-08T09:57:29.520Z,53472
2022-11-08T09:58:32.350Z,49440
2022-11-08T09:59:34.719Z,58272
2022-11-08T10:00:38.226Z,55552
2022-11-08T10:01:41.344Z,56480
2022-11-08T10:02:44.648Z,84704
2022-11-08T10:03:47.738Z,87104
2022-11-08T10:04:50.178Z,87776
2022-11-08T10:05:53.448Z,87776
2022-11-08T10:07:00.994Z,86656
2022-11-08T10:08:05.802Z,85120
2022-11-08T10:09:09.519Z,82944
2022-11-08T10:10:12.672Z,81504
2022-11-08T10:11:16.490Z,79552
2022-11-08T10:12:20.280Z,83104
2022-11-08T10:13:23.701Z,79552
2022-11-08T10:14:26.132Z,87392
2022-11-08T10:15:29.233Z,84672
2022-11-08T10:16:32.743Z,90720
2022-11-08T10:17:36.193Z,89344
2022-11-08T10:18:39.629Z,81376
2022-11-08T10:19:43.114Z,84352
2022-11-08T10:20:46.682Z,89728
2022-11-08T10:21:50.136Z,84352
2022-11-08T10:22:53.416Z,96000
2022-11-08T10:23:56.414Z,93568
2022-11-08T10:24:59.881Z,95232
2022-11-08T10:26:02.954Z,99360
2022-11-08T10:27:05.679Z,103200
2022-11-08T10:28:09.129Z,96224
2022-11-08T10:29:12.742Z,91456
2022-11-08T10:30:15.595Z,94240
2022-11-08T10:31:18.718Z,95264
2022-11-08T10:32:22.506Z,84928
2022-11-08T10:33:26.711Z,81504
2022-11-08T10:34:29.821Z,83136
2022-11-08T10:35:32.564Z,86432
2022-11-08T10:36:36.645Z,82496
2022-11-08T10:37:39.673Z,85024
2022-11-08T10:38:42.041Z,82400
2022-11-08T10:39:45.387Z,74368
2022-11-08T10:40:47.926Z,69024
2022-11-08T10:41:51.197Z,74848
2022-11-08T10:42:53.620Z,60608
2022-11-08T10:43:56.770Z,66752
2022-11-08T10:44:59.866Z,62432
2022-11-08T10:46:02.692Z,56096
2022-11-08T10:47:05.317Z,54144
2022-11-08T10:48:07.836Z,60480
2022-11-08T10:49:11.174Z,70336
2022-11-08T10:50:14.606Z,70816
2022-11-08T10:51:17.776Z,67424
2022-11-08T10:52:20.398Z,59776
2022-11-08T10:53:24.135Z,65888
2022-11-08T10:54:26.709Z,76032
2022-11-08T10:55:29.228Z,63168
2022-11-08T10:56:34.192Z,65472
2022-11-08T10:57:40.745Z,64480
2022-11-08T10:58:43.179Z,62496
2022-11-08T10:59:46.340Z,60160
2022-11-08T11:00:49.695Z,61536
2022-11-08T11:01:52.034Z,54400
2022-11-08T11:02:55.489Z,51712
2022-11-08T11:03:58.561Z,55424
2022-11-08T11:05:01.280Z,53568
2022-11-08T11:06:04.081Z,54528
2022-11-08T11:07:06.705Z,50208
2022-11-08T11:08:09.667Z,56800
2022-11-08T11:09:13.403Z,58272
2022-11-08T11:10:16.485Z,57632
2022-11-08T11:11:19.556Z,54976
2022-11-08T11:12:22.231Z,56608
2022-11-08T11:13:25.024Z,54464
2022-11-08T11:14:28.568Z,44800
2022-11-08T11:15:32.594Z,52384
2022-11-08T11:16:35.036Z,57664
2022-11-08T11:17:39.151Z,60928
2022-11-08T11:18:43.871Z,66432
2022-11-08T11:19:47.246Z,68480
2022-11-08T11:20:50.683Z,64096
2022-11-08T11:21:54.035Z,56448
2022-11-08T11:22:57.254Z,51072
2022-11-08T11:24:00.328Z,52032
2022-11-08T11:25:03.558Z,46912
2022-11-08T11:26:06.582Z,51008
2022-11-08T11:27:09.473Z,51616
2022-11-08T11:28:12.572Z,48160
2022-11-08T11:29:15.170Z,36512
2022-11-08T11:30:17.699Z,37088
2022-11-08T11:31:21.185Z,39680
2022-11-08T11:32:24.567Z,42400
2022-11-08T11:33:28.028Z,47648
2022-11-08T11:34:30.986Z,50880
2022-11-08T11:35:34.737Z,56448
2022-11-08T11:36:37.539Z,60032
2022-11-08T11:37:39.782Z,56576
2022-11-08T11:38:42.324Z,51040
2022-11-08T11:39:45.046Z,57632
2022-11-08T11:40:47.627Z,47904
2022-11-08T11:41:51.547Z,50848
2022-11-08T11:42:54.642Z,49792
2022-11-08T11:43:57.800Z,50624
2022-11-08T11:45:00.800Z,54016
2022-11-08T11:46:03.859Z,56288
2022-11-08T11:47:07.580Z,53824
2022-11-08T11:48:10.535Z,52352
2022-11-08T11:49:13.353Z,46816
2022-11-08T11:50:16.227Z,45184
2022-11-08T11:51:18.827Z,47872
2022-11-08T11:52:22.620Z,42592
2022-11-08T11:53:25.240Z,46720
2022-11-08T11:54:28.922Z,44160
2022-11-08T11:55:31.628Z,40704
2022-11-08T11:56:34.833Z,44448
2022-11-08T11:57:37.096Z,39264
2022-11-08T11:58:40.387Z,45632
2022-11-08T11:59:43.160Z,51776
2022-11-08T12:00:46.155Z,44192
2022-11-08T12:01:49.569Z,48672
2022-11-08T12:02:53.520Z,49888
2022-11-08T12:03:56.439Z,44864
2022-11-08T12:04:59.163Z,46176
2022-11-08T12:06:02.064Z,46048
2022-11-08T12:07:05.619Z,46464
2022-11-08T12:08:09.839Z,41728
2022-11-08T12:09:13.381Z,44992
2022-11-08T12:10:17.168Z,43264
2022-11-08T12:11:20.060Z,41088
2022-11-08T12:12:22.800Z,37824
2022-11-08T12:13:25.628Z,36800
2022-11-08T12:14:28.424Z,36160
2022-11-08T12:15:31.634Z,36896
2022-11-08T12:16:34.428Z,35392
2022-11-08T12:17:37.860Z,30528
2022-11-08T12:18:43.472Z,26592
2022-11-08T12:19:50.201Z,26656
2022-11-08T12:20:53.273Z,26400
2022-11-08T12:21:56.328Z,23520
2022-11-08T12:22:59.689Z,19104
2022-11-08T12:24:02.244Z,22528
2022-11-08T12:25:04.965Z,19456
2022-11-08T12:26:07.575Z,18592
2022-11-08T12:27:10.288Z,18592
2022-11-08T12:28:13.659Z,19104
2022-11-08T12:29:17.610Z,22464
2022-11-08T12:30:20.674Z,18656
2022-11-08T12:31:23.705Z,18176
2022-11-08T12:32:26.902Z,17856
2022-11-08T12:33:30.348Z,17292
2022-11-08T12:34:33.847Z,17492
2022-11-08T12:35:36.382Z,18016
2022-11-08T12:36:39.478Z,18176
2022-11-08T12:37:42.364Z,18528
2022-11-08T12:38:45.817Z,15996
2022-11-08T12:39:49.060Z,16296
2022-11-08T12:40:52.509Z,15388
2022-11-08T12:41:55.051Z,14072
2022-11-08T12:42:57.838Z,13952
2022-11-08T12:44:01.306Z,13532
2022-11-08T12:45:05.409Z,13524
2022-11-08T12:46:08.409Z,13908
2022-11-08T12:47:12.532Z,14608
2022-11-08T12:48:16.016Z,13660
2022-11-08T12:49:22.166Z,12844
2022-11-08T12:50:25.760Z,12608
2022-11-08T12:51:28.556Z,12312
2022-11-08T12:52:31.554Z,12096
2022-11-08T12:53:34.642Z,11972
2022-11-08T12:54:37.523Z,11792
2022-11-08T12:55:40.709Z,11884
2022-11-08T12:56:43.436Z,11664
2022-11-08T12:57:46.363Z,11116
2022-11-08T12:58:49.466Z,10952
2022-11-08T12:59:52.823Z,10784
2022-11-08T13:00:56.156Z,10648
2022-11-08T13:02:00.391Z,10644
2022-11-08T13:03:03.585Z,10836
2022-11-08T13:04:06.843Z,11080
2022-11-08T13:05:10.190Z,11108
2022-11-08T13:06:13.221Z,10964
2022-11-08T13:07:16.095Z,11040
2022-11-08T13:08:19.942Z,10488
2022-11-08T13:09:25.095Z,10360
2022-11-08T13:10:28.475Z,10332
2022-11-08T13:11:31.278Z,10228
2022-11-08T13:12:34.670Z,9984
2022-11-08T13:13:37.942Z,9696
2022-11-08T13:14:41.500Z,9456
2022-11-08T13:15:45.151Z,9244
2022-11-08T13:16:48.262Z,9064
2022-11-08T13:17:51.709Z,8920
2022-11-08T13:18:54.873Z,8712
2022-11-08T13:20:02.121Z,8408
2022-11-08T13:21:08.420Z,7860
2022-11-08T13:22:11.879Z,7252
2022-11-08T13:23:14.669Z,6628
2022-11-08T13:24:42.614Z,6044
2022-11-08T13:25:48.576Z,5412
2022-11-08T13:26:53.665Z,5180
2022-11-08T13:28:02.172Z,5068
2022-11-08T13:29:05.431Z,5024
2022-11-08T13:30:08.167Z,5004
2022-11-08T13:31:11.328Z,4976
2022-11-08T13:32:14.705Z,4956
2022-11-08T13:33:17.501Z,4888
2022-11-08T13:34:20.253Z,4804
2022-11-08T13:35:23.436Z,4728
2022-11-08T13:36:26.575Z,4696
2022-11-08T13:37:30.115Z,4704
2022-11-08T13:38:32.836Z,4724
2022-11-08T13:39:36.011Z,4712
2022-11-08T13:40:39.207Z,4648
2022-11-08T13:41:42.732Z,4552
2022-11-08T13:42:45.635Z,4464
2022-11-08T13:43:48.434Z,4388
2022-11-08T13:44:52.003Z,4388
2022-11-08T13:45:54.439Z,4436
2022-11-08T13:46:57.818Z,4540
2022-11-08T13:48:00.690Z,4720
2022-11-08T13:49:03.776Z,4908
2022-11-08T13:50:07.044Z,5060
2022-11-08T13:51:10.701Z,5184
2022-11-08T13:52:13.509Z,5256
2022-11-08T13:53:16.164Z,5260
2022-11-08T13:54:19.258Z,5256
2022-11-08T13:55:22.249Z,5176
2022-11-08T13:56:25.704Z,5060
2022-11-08T13:57:29.076Z,4956
2022-11-08T13:58:32.352Z,4876
2022-11-08T13:59:35.432Z,4828
2022-11-08T14:00:39.015Z,4816
2022-11-08T14:01:42.565Z,4776
2022-11-08T14:02:46.091Z,4696
2022-11-08T14:03:48.635Z,4576
2022-11-08T14:04:51.761Z,4436
2022-11-08T14:05:55.251Z,4284
2022-11-08T14:06:58.109Z,4124
2022-11-08T14:08:02.107Z,3992
2022-11-08T14:09:05.437Z,3900
2022-11-08T14:10:08.243Z,3884
2022-11-08T14:11:11.047Z,3916
2022-11-08T14:12:14.673Z,3972
2022-11-08T14:13:17.483Z,4032
2022-11-08T14:14:21.894Z,4112
2022-11-08T14:15:24.970Z,4232
2022-11-08T14:16:28.176Z,4352
2022-11-08T14:17:31.736Z,4504
2022-11-08T14:18:35.104Z,4640
2022-11-08T14:19:38.583Z,4744
2022-11-08T14:20:42.603Z,4844
2022-11-08T14:21:45.852Z,4892
2022-11-08T14:22:50.286Z,4896
2022-11-08T14:23:54.054Z,4824
2022-11-08T14:24:57.834Z,4700
2022-11-08T14:26:00.911Z,4584
2022-11-08T14:27:04.671Z,4452
2022-11-08T14:28:07.656Z,4292
2022-11-08T14:29:10.769Z,4124
2022-11-08T14:30:13.677Z,3920
2022-11-08T14:31:16.540Z,3724
2022-11-08T14:32:19.526Z,3512